Time;durP1;ratioP1;P1;durP2;ratioP2;P2;SDS_P1;SDS_P2;PMS_P1;PMS_P2;Temp;Humidity;BMP_temperature;BMP_pressure;BME280_temperature;BME280_humidity;BME280_pressure;Samples;Min_cycle;Max_cycle;Signal;HPM_P1;HPM_P2
2021/07/19 00:00:02;;;;;;;11.47;7.50;;;;;;;18.10;62.91;101346.75;5042810;28;20233;-78
2021/07/19 00:02:28;;;;;;;10.70;6.70;;;;;;;18.08;62.74;101338.81;5044519;28;20392;-78
2021/07/19 00:04:56;;;;;;;9.43;6.70;;;;;;;18.09;62.61;101345.06;5053873;28;20220;-79
2021/07/19 00:07:23;;;;;;;10.73;6.77;;;;;;;18.08;62.61;101335.28;5049710;28;20210;-78
2021/07/19 00:09:49;;;;;;;10.57;7.33;;;;;;;18.07;62.70;101345.19;5041705;28;20217;-78
2021/07/19 00:12:17;;;;;;;7.97;6.67;;;;;;;18.07;62.65;101334.41;5044106;28;20209;-78
2021/07/19 00:14:46;;;;;;;13.20;7.17;;;;;;;18.08;62.54;101336.13;5038081;28;20206;-78
2021/07/19 00:17:15;;;;;;;11.13;6.90;;;;;;;18.09;62.46;101339.69;5041140;28;20227;-78
2021/07/19 00:19:42;;;;;;;9.50;7.10;;;;;;;18.08;62.46;101335.28;5046956;28;20210;-80
2021/07/19 00:22:09;;;;;;;11.57;7.33;;;;;;;18.07;62.49;101345.19;5033963;28;20218;-78
2021/07/19 00:24:36;;;;;;;10.97;7.10;;;;;;;18.09;62.60;101353.16;5037799;28;20221;-80
2021/07/19 00:27:03;;;;;;;9.23;6.43;;;;;;;18.08;62.52;101346.91;5036777;28;20229;-79
2021/07/19 00:29:30;;;;;;;10.17;6.37;;;;;;;18.08;62.61;101354.13;5035453;28;20649;-79
2021/07/19 00:31:56;;;;;;;11.10;7.43;;;;;;;18.08;62.67;101357.69;5036647;28;20203;-79
2021/07/19 00:34:24;;;;;;;9.40;7.10;;;;;;;18.07;62.59;101347.03;5049783;28;20673;-79
2021/07/19 00:36:54;;;;;;;10.07;6.90;;;;;;;18.08;62.60;101356.84;5042544;28;20582;-79
2021/07/19 00:39:21;;;;;;;13.67;7.13;;;;;;;18.07;62.71;101353.28;5045225;28;20206;-78
2021/07/19 00:41:47;;;;;;;10.37;6.93;;;;;;;18.07;62.65;101352.44;5048920;28;20231;-79
2021/07/19 00:44:17;;;;;;;8.03;6.70;;;;;;;18.08;62.80;101359.53;5037291;28;20708;-78
2021/07/19 00:46:44;;;;;;;9.30;7.00;;;;;;;18.11;62.91;101351.16;5055723;28;20551;-78
2021/07/19 00:49:11;;;;;;;10.77;7.10;;;;;;;18.13;63.02;101347.34;5042758;28;20198;-79
2021/07/19 00:51:41;;;;;;;10.17;6.83;;;;;;;18.16;63.02;101344.41;5050840;28;20654;-78
2021/07/19 00:54:09;;;;;;;8.63;6.67;;;;;;;18.18;62.87;101342.44;5042804;28;20200;-78
2021/07/19 00:56:38;;;;;;;9.47;6.80;;;;;;;18.20;62.74;101345.88;5057538;28;20597;-78
2021/07/19 00:59:07;;;;;;;11.53;6.77;;;;;;;18.23;62.79;101345.63;5040574;28;20213;-78
2021/07/19 01:01:36;;;;;;;7.83;5.97;;;;;;;18.24;62.55;101341.94;5045906;28;20251;-79
2021/07/19 01:04:04;;;;;;;9.97;7.10;;;;;;;18.22;62.47;101341.22;5037445;28;20620;-79
2021/07/19 01:06:33;;;;;;;10.63;6.77;;;;;;;18.21;62.46;101334.09;5047114;28;20230;-80
2021/07/19 01:09:03;;;;;;;9.67;7.40;;;;;;;18.21;62.57;101333.25;5037405;28;20218;-80
2021/07/19 01:11:31;;;;;;;13.87;7.67;;;;;;;18.21;62.66;101341.34;5049290;28;20210;-79
2021/07/19 01:13:57;;;;;;;9.37;7.10;;;;;;;18.22;62.78;101330.41;5052730;28;20209;-80
2021/07/19 01:16:24;;;;;;;8.70;6.60;;;;;;;18.26;62.66;101325.63;5053834;28;20225;-79
2021/07/19 01:18:51;;;;;;;9.60;7.07;;;;;;;18.26;62.52;101328.31;5038945;28;20214;-79
2021/07/19 01:21:48;;;;;;;10.03;6.93;;;;;;;18.24;62.55;101324.91;5050940;28;20617;-79
2021/07/19 01:24:29;;;;;;;11.10;7.20;;;;;;;18.23;62.47;101326.75;5056636;28;20205;-78
2021/07/19 01:27:13;;;;;;;12.83;7.90;;;;;;;18.24;62.56;101325.75;5039430;28;20227;-79
2021/07/19 01:29:42;;;;;;;10.07;7.20;;;;;;;18.24;62.67;101325.75;5049425;28;20289;-79
2021/07/19 01:32:10;;;;;;;10.10;7.20;;;;;;;18.25;62.77;101322.06;5049295;28;20210;-79
2021/07/19 01:34:40;;;;;;;11.67;7.30;;;;;;;18.25;63.00;101319.38;5048680;28;20209;-78
2021/07/19 01:37:08;;;;;;;9.77;6.83;;;;;;;18.24;62.90;101320.38;5052799;28;20225;-79
2021/07/19 01:39:36;;;;;;;10.97;7.87;;;;;;;18.25;63.35;101323.91;5040831;28;20218;-78
2021/07/19 01:42:04;;;;;;;11.73;7.40;;;;;;;18.24;63.46;101317.66;5046101;28;20569;-79
2021/07/19 01:44:32;;;;;;;10.23;7.53;;;;;;;18.24;63.64;101314.13;5045428;28;20213;-78
2021/07/19 01:47:02;;;;;;;12.60;8.00;;;;;;;18.20;63.63;101308.13;5048352;28;20323;-78
2021/07/19 01:49:30;;;;;;;8.60;6.53;;;;;;;18.19;63.72;101310.94;5036579;28;20202;-79
2021/07/19 01:51:57;;;;;;;8.60;7.10;;;;;;;18.18;63.82;101314.63;5040079;28;20203;-79
2021/07/19 01:54:24;;;;;;;11.30;7.30;;;;;;;18.17;63.89;101310.22;5048599;28;20215;-79
2021/07/19 01:56:51;;;;;;;8.93;6.60;;;;;;;18.16;63.92;101314.75;5049000;28;20223;-78
2021/07/19 01:59:19;;;;;;;7.63;6.03;;;;;;;18.15;63.90;101315.72;5047219;28;20205;-78
2021/07/19 02:01:46;;;;;;;10.00;6.47;;;;;;;18.14;63.85;101311.31;5045054;28;20240;-77
2021/07/19 02:04:14;;;;;;;9.93;6.60;;;;;;;18.11;64.03;101313.41;5049585;28;20287;-79
2021/07/19 02:06:43;;;;;;;9.73;6.13;;;;;;;18.11;64.17;101318.81;5045349;28;20238;-78
2021/07/19 02:09:11;;;;;;;12.03;7.17;;;;;;;18.10;64.28;101314.41;5039128;28;20275;-79
2021/07/19 02:11:38;;;;;;;11.17;7.40;;;;;;;18.10;64.63;101319.78;5046910;28;20251;-79
2021/07/19 02:14:08;;;;;;;8.10;7.27;;;;;;;18.09;65.19;101321.66;5041488;28;20217;-78
2021/07/19 02:16:38;;;;;;;9.83;7.13;;;;;;;18.09;65.25;101316.28;5056552;28;20224;-79
2021/07/19 02:19:06;;;;;;;8.70;7.47;;;;;;;18.08;65.34;101324.50;5056072;28;20211;-78
2021/07/19 02:21:36;;;;;;;12.37;7.83;;;;;;;18.05;65.52;101325.59;5047069;28;20229;-78
2021/07/19 02:24:03;;;;;;;12.47;8.00;;;;;;;18.02;65.63;101320.47;5038748;28;20205;-79
2021/07/19 02:26:30;;;;;;;12.77;7.90;;;;;;;18.00;65.75;101334.06;5047845;28;20232;-78
2021/07/19 02:28:58;;;;;;;10.90;7.53;;;;;;;17.97;65.86;101330.75;5055707;28;20208;-79
2021/07/19 02:31:25;;;;;;;9.80;7.40;;;;;;;17.95;66.07;101327.34;5048635;28;20626;-80
2021/07/19 02:33:52;;;;;;;13.37;7.53;;;;;;;17.95;66.24;101335.41;5046298;28;20205;-79
2021/07/19 02:36:20;;;;;;;10.43;7.33;;;;;;;17.91;66.41;101324.06;5055516;28;20228;-79
2021/07/19 02:38:50;;;;;;;13.10;7.73;;;;;;;17.90;66.58;101324.19;5055699;28;20203;-78
2021/07/19 02:41:19;;;;;;;8.53;7.17;;;;;;;17.87;66.63;101317.22;5053629;28;20224;-77
2021/07/19 02:43:49;;;;;;;9.43;6.80;;;;;;;17.86;66.84;101328.13;5041172;28;20219;-78
2021/07/19 02:46:18;;;;;;;10.43;6.73;;;;;;;17.83;66.83;101323.84;5045837;28;20237;-79
2021/07/19 02:48:46;;;;;;;11.10;7.03;;;;;;;17.83;67.08;101325.66;5049572;28;20228;-79
2021/07/19 02:51:14;;;;;;;10.20;6.90;;;;;;;17.81;67.10;101325.78;5042417;28;20216;-78
2021/07/19 02:53:42;;;;;;;11.17;6.67;;;;;;;17.81;67.09;101331.19;5048707;28;20212;-78
2021/07/19 02:56:10;;;;;;;13.13;6.60;;;;;;;17.80;67.28;101331.31;5054328;28;20222;-79
2021/07/19 02:58:38;;;;;;;9.73;6.07;;;;;;;17.79;67.11;101340.38;5048828;28;20206;-79
2021/07/19 03:01:06;;;;;;;13.23;6.60;;;;;;;17.77;67.13;101335.09;5048792;28;20226;-80
2021/07/19 03:03:35;;;;;;;10.17;7.07;;;;;;;17.75;67.31;101330.81;5040708;28;20214;-79
2021/07/19 03:06:06;;;;;;;12.10;6.53;;;;;;;17.72;67.41;101325.72;5047274;28;20242;-80
2021/07/19 03:08:35;;;;;;;9.20;6.70;;;;;;;17.72;67.20;101328.41;5037018;28;20202;-79
2021/07/19 03:11:05;;;;;;;12.13;6.37;;;;;;;17.69;67.20;101324.97;5035377;28;20201;-79
2021/07/19 03:13:34;;;;;;;10.63;6.63;;;;;;;17.68;66.97;101335.88;5038100;28;20201;-79
2021/07/19 03:16:01;;;;;;;9.60;6.53;;;;;;;17.67;66.94;101331.47;5043368;28;20303;-79
2021/07/19 03:18:28;;;;;;;10.43;6.43;;;;;;;17.65;67.02;101330.75;5047075;28;20212;-79
2021/07/19 03:20:56;;;;;;;9.70;6.30;;;;;;;17.63;66.87;101328.13;5035609;28;20745;-79
2021/07/19 03:23:26;;;;;;;11.93;6.27;;;;;;;17.61;66.97;101329.25;5051508;28;20234;-79
2021/07/19 03:25:54;;;;;;;11.43;6.47;;;;;;;17.60;67.13;101343.69;5042425;28;20246;-79
2021/07/19 03:28:21;;;;;;;11.13;6.10;;;;;;;17.60;67.42;101332.91;5044095;28;20237;-78
2021/07/19 03:30:52;;;;;;;15.70;6.80;;;;;;;17.60;67.39;101349.06;5052096;28;20213;-79
2021/07/19 03:33:18;;;;;;;11.83;7.00;;;;;;;17.59;67.45;101350.91;5039889;28;20205;-79
2021/07/19 03:35:45;;;;;;;9.97;6.60;;;;;;;17.59;67.60;101347.34;5034895;28;20226;-78
2021/07/19 03:38:14;;;;;;;16.10;5.57;;;;;;;17.55;67.21;101348.63;5048285;28;20667;-78
2021/07/19 03:40:41;;;;;;;10.43;6.13;;;;;;;17.50;67.24;101353.50;5053562;28;20202;-80
2021/07/19 03:43:09;;;;;;;9.33;6.10;;;;;;;17.44;66.98;101362.06;5051629;28;20230;-80
2021/07/19 03:45:36;;;;;;;9.13;5.17;;;;;;;17.37;66.48;101360.88;5051511;28;20234;-78
2021/07/19 03:48:05;;;;;;;8.73;4.83;;;;;;;17.28;65.89;101351.69;5049294;28;20204;-78
2021/07/19 03:50:33;;;;;;;6.77;4.37;;;;;;;17.17;65.13;101352.56;5040339;28;20587;-80
2021/07/19 03:53:00;;;;;;;9.13;4.07;;;;;;;17.11;64.64;101353.03;5053835;28;20218;-80
2021/07/19 03:55:27;;;;;;;10.00;4.07;;;;;;;17.06;64.31;101355.22;5044850;28;20219;-79
2021/07/19 03:57:54;;;;;;;8.93;3.47;;;;;;;17.03;63.90;101350.09;5046341;28;20208;-78
2021/07/19 04:00:21;;;;;;;7.20;3.77;;;;;;;17.02;63.52;101351.06;5048441;28;20298;-78
2021/07/19 04:02:51;;;;;;;6.27;4.30;;;;;;;16.99;63.30;101351.34;5040332;28;20220;-79
2021/07/19 04:05:21;;;;;;;7.33;3.80;;;;;;;16.99;63.11;101352.19;5054042;28;20335;-78
2021/07/19 04:07:49;;;;;;;7.23;3.60;;;;;;;16.98;62.92;101358.53;5051967;28;20292;-79
2021/07/19 04:10:19;;;;;;;10.60;4.17;;;;;;;16.99;62.63;101364.78;5042656;28;20232;-79
2021/07/19 04:12:48;;;;;;;8.43;3.97;;;;;;;16.99;62.77;101368.34;5048088;28;22287;-78
2021/07/19 04:15:16;;;;;;;7.43;3.80;;;;;;;16.99;62.67;101362.09;5044504;28;20232;-79
2021/07/19 04:17:43;;;;;;;9.33;3.70;;;;;;;17.02;62.73;101372.59;5048512;28;20203;-79
2021/07/19 04:20:14;;;;;;;7.83;3.93;;;;;;;17.03;62.49;101360.84;5049454;28;20216;-78
2021/07/19 04:22:43;;;;;;;13.23;3.97;;;;;;;17.06;62.58;101362.44;5046954;28;20910;-78
2021/07/19 04:25:13;;;;;;;7.60;3.63;;;;;;;17.06;62.31;101366.00;5045229;28;20300;-78
2021/07/19 04:27:45;;;;;;;8.50;3.27;;;;;;;17.09;62.27;101372.97;5052182;28;20204;-78
2021/07/19 04:30:14;;;;;;;6.97;4.00;;;;;;;17.10;61.88;101372.84;5051663;28;20289;-79
2021/07/19 04:32:47;;;;;;;10.10;3.80;;;;;;;17.11;61.82;101365.63;5048493;28;20203;-80
2021/07/19 04:35:18;;;;;;;9.63;4.10;;;;;;;17.12;61.51;101373.59;5044391;28;20257;-79
2021/07/19 04:37:47;;;;;;;6.97;3.37;;;;;;;17.09;61.14;101371.13;5049472;28;20230;-78
2021/07/19 04:40:17;;;;;;;5.87;2.87;;;;;;;17.07;61.25;101365.03;5046444;28;20202;-77
2021/07/19 04:42:44;;;;;;;8.23;3.53;;;;;;;17.07;61.13;101372.22;5048422;28;21447;-78
2021/07/19 04:45:11;;;;;;;8.57;3.67;;;;;;;17.07;60.94;101365.03;5052668;28;20233;-78
2021/07/19 04:47:38;;;;;;;6.93;3.63;;;;;;;17.08;60.95;101371.25;5053252;28;20194;-78
2021/07/19 04:50:05;;;;;;;6.77;3.93;;;;;;;17.07;61.02;101365.03;5043340;28;20212;-78
2021/07/19 04:52:33;;;;;;;8.63;3.67;;;;;;;17.08;60.99;101365.88;5048839;28;20210;-77
2021/07/19 04:55:02;;;;;;;7.97;3.60;;;;;;;17.08;61.06;101372.13;5042377;28;20211;-77
2021/07/19 04:57:29;;;;;;;5.90;3.00;;;;;;;17.08;61.22;101366.72;5040933;28;20196;-77
2021/07/19 04:59:59;;;;;;;7.43;3.87;;;;;;;17.10;60.89;101378.25;5043129;28;20567;-77
2021/07/19 05:02:28;;;;;;;9.40;3.67;;;;;;;17.10;60.97;101377.38;5047501;28;20259;-78
2021/07/19 05:04:57;;;;;;;6.43;3.40;;;;;;;17.10;61.07;101378.25;5044391;28;20666;-78
2021/07/19 05:07:26;;;;;;;6.73;3.33;;;;;;;17.09;61.18;101387.28;5047065;28;20280;-77
2021/07/19 05:09:54;;;;;;;12.33;3.73;;;;;;;17.09;61.16;101387.28;5051736;28;20210;-79
2021/07/19 05:12:23;;;;;;;9.47;3.50;;;;;;;17.11;61.23;101390.72;5052931;28;20211;-78
2021/07/19 05:14:50;;;;;;;12.40;4.13;;;;;;;17.14;61.35;101393.19;5045123;28;20671;-78
2021/07/19 05:17:16;;;;;;;9.83;4.03;;;;;;;17.17;61.42;101390.25;5051803;28;20210;-78
2021/07/19 05:19:44;;;;;;;6.37;3.73;;;;;;;17.18;61.45;101389.28;5049947;28;20214;-78
2021/07/19 05:22:11;;;;;;;10.27;4.27;;;;;;;17.19;61.57;101374.84;5046339;28;20235;-77
2021/07/19 05:24:38;;;;;;;11.40;4.20;;;;;;;17.21;61.55;101383.63;5036889;28;20199;-77
2021/07/19 05:27:06;;;;;;;10.60;3.90;;;;;;;17.23;62.16;101381.66;5046522;28;20223;-77
2021/07/19 05:29:35;;;;;;;7.73;3.83;;;;;;;17.29;61.80;101380.31;5047197;28;20265;-77
2021/07/19 05:32:02;;;;;;;8.90;4.00;;;;;;;17.35;61.88;101386.09;5042138;28;20212;-77
2021/07/19 05:34:28;;;;;;;10.27;4.83;;;;;;;17.43;61.96;101381.91;5046111;28;20208;-78
2021/07/19 05:36:55;;;;;;;8.90;4.30;;;;;;;17.47;61.92;101384.22;5040645;28;20231;-77
2021/07/19 05:39:22;;;;;;;12.03;4.93;;;;;;;17.54;62.15;101381.91;5045641;28;20585;-76
2021/07/19 05:41:48;;;;;;;10.63;4.57;;;;;;;17.63;62.26;101383.84;5046519;28;20256;-78
2021/07/19 05:44:15;;;;;;;8.63;3.97;;;;;;;17.73;62.09;101394.78;5041530;28;20235;-78
2021/07/19 05:46:43;;;;;;;7.63;4.07;;;;;;;17.81;62.19;101389.59;5047354;28;20702;-79
2021/07/19 05:49:10;;;;;;;9.13;4.70;;;;;;;17.89;62.16;101388.00;5053092;28;20217;-77
2021/07/19 05:51:36;;;;;;;9.87;4.20;;;;;;;17.99;61.99;101390.78;5044822;28;20205;-78
2021/07/19 05:54:03;;;;;;;8.53;4.30;;;;;;;18.04;61.89;101392.13;5054061;28;20566;-78
2021/07/19 05:56:31;;;;;;;11.57;5.03;;;;;;;18.12;61.51;101379.84;5045413;28;20228;-77
2021/07/19 05:58:58;;;;;;;20.97;6.00;;;;;;;18.17;61.63;101389.25;5038400;28;20202;-76
2021/07/19 06:01:24;;;;;;;15.27;5.40;;;;;;;18.21;61.44;101389.88;5051220;28;20747;-78
2021/07/19 06:03:52;;;;;;;7.23;4.07;;;;;;;18.25;61.43;101394.03;5049398;28;20228;-78
2021/07/19 06:06:19;;;;;;;15.13;5.27;;;;;;;18.27;60.89;101400.97;5046560;28;20893;-77
2021/07/19 06:08:45;;;;;;;7.60;4.57;;;;;;;18.30;60.84;101389.06;5045749;28;20761;-78
2021/07/19 06:11:12;;;;;;;8.17;4.70;;;;;;;18.33;61.08;101399.59;5051529;28;20858;-78
2021/07/19 06:13:38;;;;;;;8.77;4.30;;;;;;;18.33;61.07;101394.22;5044032;28;20212;-78
2021/07/19 06:16:05;;;;;;;12.30;5.23;;;;;;;18.33;61.05;101396.91;5039622;28;20237;-77
2021/07/19 06:18:32;;;;;;;9.33;4.20;;;;;;;18.33;61.34;101405.00;5047920;28;20206;-77
2021/07/19 06:20:59;;;;;;;9.47;4.53;;;;;;;18.33;61.49;101408.56;5039749;28;20227;-78
2021/07/19 06:23:26;;;;;;;9.43;4.83;;;;;;;18.34;61.55;101401.31;5040660;28;20241;-78
2021/07/19 06:25:53;;;;;;;7.63;4.50;;;;;;;18.34;61.77;101393.22;5052361;28;20247;-78
2021/07/19 06:28:19;;;;;;;8.13;4.60;;;;;;;18.32;61.67;101404.16;5043777;28;20209;-78
2021/07/19 06:30:46;;;;;;;10.60;4.87;;;;;;;18.32;61.76;101403.28;5036637;28;20285;-77
2021/07/19 06:33:12;;;;;;;9.53;4.67;;;;;;;18.32;61.96;101398.75;5048899;28;20552;-77
2021/07/19 06:35:39;;;;;;;10.50;5.07;;;;;;;18.34;61.90;101406.72;5050655;28;20233;-78
2021/07/19 06:38:07;;;;;;;12.03;4.40;;;;;;;18.36;61.50;101400.22;5047972;28;20213;-78
2021/07/19 06:40:33;;;;;;;9.73;4.13;;;;;;;18.38;61.08;101397.38;5046348;28;20213;-78
2021/07/19 06:43:00;;;;;;;12.70;4.50;;;;;;;18.38;60.79;101397.38;5044741;28;20232;-78
2021/07/19 06:45:26;;;;;;;7.13;3.93;;;;;;;18.40;60.13;101398.13;5040884;28;20238;-78
2021/07/19 06:47:53;;;;;;;8.60;4.37;;;;;;;18.43;59.65;101402.41;5042628;28;20202;-77
2021/07/19 06:50:19;;;;;;;9.17;4.83;;;;;;;18.49;59.62;101400.03;5049207;28;20209;-77
2021/07/19 06:52:46;;;;;;;6.97;4.53;;;;;;;18.58;59.48;101399.25;5044487;28;20205;-77
2021/07/19 06:55:14;;;;;;;8.60;4.77;;;;;;;18.64;59.48;101400.59;5048243;28;20232;-78
2021/07/19 06:57:41;;;;;;;7.03;4.00;;;;;;;18.70;58.60;101403.63;5050426;28;20202;-78
2021/07/19 07:00:09;;;;;;;7.37;4.37;;;;;;;18.68;57.93;101407.44;5045423;28;20271;-76
2021/07/19 07:02:36;;;;;;;5.77;4.17;;;;;;;18.68;57.72;101412.84;5042924;28;20890;-78
2021/07/19 07:05:03;;;;;;;8.47;4.20;;;;;;;18.67;57.65;101409.28;5043660;28;20221;-77
2021/07/19 07:07:29;;;;;;;8.67;4.30;;;;;;;18.67;57.36;101411.13;5052278;28;20208;-77
2021/07/19 07:09:56;;;;;;;7.93;4.10;;;;;;;18.67;57.67;101411.13;5037306;28;20214;-78
2021/07/19 07:12:24;;;;;;;7.80;4.10;;;;;;;18.67;58.06;101403.88;5052725;28;20200;-78
2021/07/19 07:14:50;;;;;;;11.17;4.57;;;;;;;18.70;58.31;101413.56;5039289;28;20571;-78
2021/07/19 07:17:17;;;;;;;7.60;3.97;;;;;;;18.71;58.17;101405.34;5044305;28;20241;-77
2021/07/19 07:19:44;;;;;;;5.77;3.17;;;;;;;18.73;57.61;101402.53;5057698;28;20205;-78
2021/07/19 07:22:11;;;;;;;9.10;4.07;;;;;;;18.68;57.46;101402.91;5059350;28;20274;-78
2021/07/19 07:24:40;;;;;;;4.63;3.77;;;;;;;18.70;57.30;101403.63;5051930;28;20207;-78
2021/07/19 07:27:08;;;;;;;6.97;3.90;;;;;;;18.70;57.05;101403.63;5044658;28;20261;-78
2021/07/19 07:29:36;;;;;;;9.77;4.00;;;;;;;18.71;56.83;101405.34;5040527;28;20244;-77
2021/07/19 07:32:02;;;;;;;6.23;3.50;;;;;;;18.73;56.52;101403.38;5048406;28;20215;-78
2021/07/19 07:34:29;;;;;;;8.30;3.70;;;;;;;18.74;56.59;101401.53;5037712;28;20203;-77
2021/07/19 07:36:56;;;;;;;6.73;3.27;;;;;;;18.75;56.52;101400.56;5037767;28;20229;-77
2021/07/19 07:39:22;;;;;;;8.30;3.40;;;;;;;18.76;56.63;101402.25;5039062;28;20215;-78
2021/07/19 07:41:48;;;;;;;7.30;3.90;;;;;;;18.76;56.89;101399.56;5037808;28;20688;-77
2021/07/19 07:44:15;;;;;;;5.17;3.47;;;;;;;18.80;57.13;101408.25;5040257;28;20237;-78
2021/07/19 07:46:44;;;;;;;5.77;3.43;;;;;;;18.84;57.27;101406.97;5037784;28;20243;-77
2021/07/19 07:49:11;;;;;;;8.97;3.73;;;;;;;18.87;57.32;101399.47;5046876;28;20241;-77
2021/07/19 07:51:37;;;;;;;8.13;3.70;;;;;;;18.92;57.20;101401.78;5041623;28;20219;-79
2021/07/19 07:54:04;;;;;;;7.40;3.33;;;;;;;18.94;57.04;101399.81;5054631;28;20215;-77
2021/07/19 07:56:30;;;;;;;6.07;3.20;;;;;;;18.98;56.97;101402.13;5047789;28;20226;-77
2021/07/19 07:58:57;;;;;;;7.50;3.07;;;;;;;19.05;56.80;101402.44;5058320;28;20210;-79
2021/07/19 08:01:23;;;;;;;7.57;3.57;;;;;;;19.09;56.62;101401.19;5060514;28;20578;-77
2021/07/19 08:03:51;;;;;;;6.57;3.13;;;;;;;19.12;56.08;101406.31;5053708;28;20689;-77
2021/07/19 08:06:18;;;;;;;6.90;3.27;;;;;;;19.15;55.89;101407.91;5052368;28;20241;-80
2021/07/19 08:08:44;;;;;;;10.13;3.13;;;;;;;19.15;55.73;101407.91;5054328;28;20218;-78
2021/07/19 08:11:11;;;;;;;6.93;3.50;;;;;;;19.17;55.69;101400.53;5048772;28;20217;-78
2021/07/19 08:13:38;;;;;;;9.33;3.90;;;;;;;19.20;55.61;101406.50;5054708;28;20204;-80
2021/07/19 08:16:05;;;;;;;7.50;3.47;;;;;;;19.22;55.11;101415.31;5047184;28;20235;-80
2021/07/19 08:18:32;;;;;;;8.00;3.00;;;;;;;19.23;54.19;101405.38;5044055;28;20231;-78
2021/07/19 08:20:59;;;;;;;4.93;3.10;;;;;;;19.25;54.33;101401.56;5044553;28;20205;-78
2021/07/19 08:23:26;;;;;;;6.43;3.03;;;;;;;19.29;53.91;101394.03;5046798;28;20229;-79
2021/07/19 08:25:53;;;;;;;6.73;3.23;;;;;;;19.36;53.95;101398.75;5054008;28;20232;-78
2021/07/19 08:28:19;;;;;;;6.03;2.90;;;;;;;19.45;53.26;101388.97;5049199;28;20207;-78
2021/07/19 08:30:46;;;;;;;5.70;3.10;;;;;;;19.52;52.53;101402.84;5055040;28;20655;-78
2021/07/19 08:33:12;;;;;;;5.33;3.50;;;;;;;19.58;51.79;101392.31;5047262;28;20213;-77
2021/07/19 08:35:39;;;;;;;7.30;3.77;;;;;;;19.64;51.44;101382.81;5054733;28;20227;-77
2021/07/19 08:38:07;;;;;;;6.27;3.40;;;;;;;19.73;50.96;101387.38;5046544;28;20207;-78
2021/07/19 08:40:34;;;;;;;3.87;2.97;;;;;;;19.77;50.57;101383.41;5051972;28;20219;-78
2021/07/19 08:43:03;;;;;;;5.50;3.23;;;;;;;19.81;50.38;101386.72;5041985;28;20236;-78
2021/07/19 08:45:30;;;;;;;5.07;3.20;;;;;;;19.92;50.32;101381.16;5050680;28;20230;-78
2021/07/19 08:47:56;;;;;;;13.37;3.33;;;;;;;20.05;49.11;101376.38;5060373;28;20210;-77
2021/07/19 08:50:24;;;;;;;6.03;2.83;;;;;;;20.15;47.62;101374.53;5045640;28;20238;-79
2021/07/19 08:52:52;;;;;;;6.57;3.07;;;;;;;20.24;48.08;101378.25;5050279;28;20215;-78
2021/07/19 08:55:21;;;;;;;8.50;4.23;;;;;;;20.35;47.53;101369.97;5054634;28;20220;-78
2021/07/19 08:57:49;;;;;;;6.73;3.87;;;;;;;20.47;47.22;101371.56;5052678;28;20218;-78
2021/07/19 09:00:17;;;;;;;9.63;3.50;;;;;;;20.59;47.17;101366.88;5045998;28;20208;-79
2021/07/19 09:02:44;;;;;;;6.83;2.90;;;;;;;20.71;47.06;101363.00;5040635;28;20209;-79
2021/07/19 09:05:12;;;;;;;5.20;3.23;;;;;;;20.81;46.19;101366.50;5040259;28;20220;-79
2021/07/19 09:07:39;;;;;;;6.97;2.83;;;;;;;20.99;46.83;101369.31;5039435;28;20269;-79
2021/07/19 09:10:07;;;;;;;6.13;3.30;;;;;;;21.12;45.60;101372.56;5051527;28;20209;-77
2021/07/19 09:12:38;;;;;;;21.77;5.27;;;;;;;21.23;45.05;101367.00;5040681;28;20218;-78
2021/07/19 09:15:06;;;;;;;5.33;3.03;;;;;;;21.23;44.57;101364.28;5050084;28;20245;-79
2021/07/19 09:17:33;;;;;;;8.70;3.23;;;;;;;21.18;44.70;101357.56;5044995;28;20667;-79
2021/07/19 09:19:59;;;;;;;9.10;3.40;;;;;;;21.19;45.01;101372.81;5049060;28;20286;-78
2021/07/19 09:22:29;;;;;;;9.97;3.40;;;;;;;21.19;45.53;101357.41;5051287;28;20205;-78
2021/07/19 09:25:07;;;;;;;4.43;3.13;;;;;;;21.28;45.94;101359.28;5051091;28;20233;-78
2021/07/19 09:27:35;;;;;;;5.63;3.03;;;;;;;21.32;45.26;101344.41;5058653;28;20203;-78
2021/07/19 09:30:12;;;;;;;4.07;2.57;;;;;;;21.36;46.00;101348.53;5054478;28;20212;-79
2021/07/19 09:32:55;;;;;;;6.60;2.77;;;;;;;21.43;45.33;101344.22;5046344;28;20208;-78
2021/07/19 09:35:22;;;;;;;6.80;3.20;;;;;;;21.60;45.60;101341.72;5040912;28;20317;-77
2021/07/19 09:37:48;;;;;;;9.03;3.07;;;;;;;21.75;44.87;101334.75;5054678;28;20220;-78
2021/07/19 09:40:15;;;;;;;7.67;3.20;;;;;;;21.91;44.83;101332.22;5058721;28;20779;-78
2021/07/19 09:42:44;;;;;;;4.87;2.90;;;;;;;21.99;43.92;101335.03;5047496;28;20220;-78
2021/07/19 09:45:24;;;;;;;5.77;2.70;;;;;;;22.01;43.25;101324.06;5045428;28;20769;-79
2021/07/19 09:47:50;;;;;;;5.93;3.10;;;;;;;21.98;42.87;101329.75;5038175;28;20564;-78
2021/07/19 09:50:19;;;;;;;3.80;2.87;;;;;;;22.03;43.11;101325.63;5051679;28;20209;-79
2021/07/19 09:52:46;;;;;;;3.57;2.80;;;;;;;22.14;43.49;101322.66;5051568;28;20282;-78
2021/07/19 09:55:14;;;;;;;5.70;2.90;;;;;;;22.32;43.38;101317.22;5051744;28;20234;-77
2021/07/19 09:57:40;;;;;;;5.83;2.73;;;;;;;22.48;42.81;101311.91;5048672;28;20208;-78
2021/07/19 10:00:09;;;;;;;6.88;2.83;;;;;;;22.59;42.50;101312.66;5043205;28;20206;-78
2021/07/19 10:02:39;;;;;;;6.05;2.92;;;;;;;22.65;42.31;101310.16;5042765;28;20206;-78
2021/07/19 10:05:08;;;;;;;5.03;3.22;;;;;;;22.69;41.95;101310.72;5047172;28;20237;-78
2021/07/19 10:07:35;;;;;;;5.93;2.97;;;;;;;22.74;42.00;101303.78;5043289;28;20208;-79
2021/07/19 10:10:05;;;;;;;3.25;2.58;;;;;;;22.84;41.41;101304.56;5038398;28;20204;-77
2021/07/19 10:12:32;;;;;;;4.82;2.95;;;;;;;22.84;41.25;101303.69;5043712;28;20208;-78
2021/07/19 10:15:01;;;;;;;7.03;3.33;;;;;;;22.88;41.17;101307.81;5046150;28;20205;-79
2021/07/19 10:17:31;;;;;;;4.95;2.80;;;;;;;22.99;41.06;101306.66;5048511;28;20204;-78
2021/07/19 10:19:58;;;;;;;6.40;2.97;;;;;;;23.08;41.21;101301.13;5051261;28;20207;-79
2021/07/19 10:22:24;;;;;;;9.65;3.50;;;;;;;23.23;41.03;101303.22;5045702;28;20210;-77
2021/07/19 10:24:51;;;;;;;4.75;2.75;;;;;;;23.35;40.40;101305.47;5045773;28;20221;-78
2021/07/19 10:27:19;;;;;;;5.03;3.05;;;;;;;23.37;39.21;101306.16;5050279;28;20205;-78
2021/07/19 10:29:47;;;;;;;5.32;2.97;;;;;;;23.39;39.22;101295.13;5040292;28;20201;-78
2021/07/19 10:32:18;;;;;;;4.38;3.03;;;;;;;23.43;39.17;101301.94;5047690;28;20208;-77
2021/07/19 10:34:49;;;;;;;5.32;2.90;;;;;;;23.43;39.59;101301.94;5046508;28;20200;-78
2021/07/19 10:37:21;;;;;;;6.32;3.28;;;;;;;23.41;39.86;101307.53;5043496;28;20243;-78
2021/07/19 10:39:52;;;;;;;5.38;3.30;;;;;;;23.38;39.96;101307.88;5046100;28;20542;-79
2021/07/19 10:42:19;;;;;;;7.13;2.85;;;;;;;23.36;39.89;101301.75;5050547;28;20208;-77
2021/07/19 10:44:46;;;;;;;7.35;3.17;;;;;;;23.43;40.13;101296.50;5045440;28;20221;-77
2021/07/19 10:47:16;;;;;;;3.70;3.03;;;;;;;23.50;39.98;101298.38;5042820;28;20234;-77
2021/07/19 10:49:56;;;;;;;4.78;3.45;;;;;;;23.62;40.10;101306.28;5045582;28;20305;-78
2021/07/19 10:52:30;;;;;;;6.90;3.33;;;;;;;23.74;39.09;101307.66;5044305;28;20232;-79
2021/07/19 10:54:57;;;;;;;5.60;3.38;;;;;;;23.78;38.31;101306.31;5045214;28;20212;-79
2021/07/19 10:57:34;;;;;;;5.05;3.28;;;;;;;23.75;37.83;101299.34;5045047;28;20241;-79
2021/07/19 11:00:04;;;;;;;4.78;3.17;;;;;;;23.73;37.52;101308.69;5044590;28;20562;-78
2021/07/19 11:02:30;;;;;;;3.70;3.17;;;;;;;23.70;37.44;101303.56;5046133;28;20269;-78
2021/07/19 11:04:58;;;;;;;7.88;3.90;;;;;;;23.66;37.56;101300.31;5044443;28;20232;-77
2021/07/19 11:07:26;;;;;;;6.28;4.22;;;;;;;23.63;37.74;101292.53;5045699;28;20215;-78
2021/07/19 11:09:53;;;;;;;4.65;3.10;;;;;;;23.62;37.48;101298.13;5045962;28;20206;-78
2021/07/19 11:12:21;;;;;;;6.22;3.97;;;;;;;23.59;37.74;101288.44;5044688;28;20204;-78
2021/07/19 11:14:50;;;;;;;5.22;3.70;;;;;;;23.59;37.77;101290.31;5047013;28;20651;-78
2021/07/19 11:17:18;;;;;;;6.72;4.10;;;;;;;23.57;37.99;101289.59;5046568;28;20221;-78
2021/07/19 11:19:46;;;;;;;5.70;3.33;;;;;;;23.56;38.09;101282.47;5044976;28;20648;-78
2021/07/19 11:22:22;;;;;;;5.75;4.20;;;;;;;23.56;38.55;101287.91;5043849;28;20206;-78
2021/07/19 11:24:51;;;;;;;5.85;3.40;;;;;;;23.55;38.09;101287.06;5049385;28;20213;-79